createdAt,value
2023-04-28T00:02:02.160Z,7.27
2023-04-28T00:04:29.220Z,7.27
2023-04-28T00:06:56.135Z,7.26
2023-04-28T00:09:22.850Z,7.23
2023-04-28T00:11:49.662Z,7.23
2023-04-28T00:14:16.879Z,7.20
2023-04-28T00:16:44.047Z,7.17
2023-04-28T00:19:10.900Z,7.14
2023-04-28T00:21:37.564Z,7.12
2023-04-28T00:24:04.517Z,7.10
2023-04-28T00:26:31.202Z,7.09
2023-04-28T00:28:57.895Z,7.08
2023-04-28T00:31:24.756Z,7.09
2023-04-28T00:33:51.481Z,7.11
2023-04-28T00:36:18.468Z,7.11
2023-04-28T00:38:45.493Z,7.13
2023-04-28T00:41:12.505Z,7.12
2023-04-28T00:43:49.051Z,7.11
2023-04-28T00:46:24.632Z,7.09
2023-04-28T00:48:51.419Z,7.07
2023-04-28T00:51:18.272Z,7.04
2023-04-28T00:53:45.193Z,7.04
2023-04-28T00:56:12.712Z,7.01
2023-04-28T00:58:39.442Z,6.99
2023-04-28T01:01:08.133Z,6.98
2023-04-28T01:03:39.814Z,6.96
2023-04-28T01:06:08.229Z,6.94
2023-04-28T01:08:36.171Z,6.93
2023-04-28T01:11:03.905Z,6.92
2023-04-28T01:13:49.422Z,6.93
2023-04-28T01:16:16.757Z,6.95
2023-04-28T01:18:47.150Z,6.97
2023-04-28T01:21:13.909Z,6.98
2023-04-28T01:23:41.346Z,6.99
2023-04-28T01:26:08.118Z,6.98
2023-04-28T01:28:34.871Z,6.98
2023-04-28T01:31:02.100Z,6.97
2023-04-28T01:33:28.834Z,6.95
2023-04-28T01:35:59.205Z,6.93
2023-04-28T01:38:25.939Z,6.90
2023-04-28T01:40:54.851Z,6.88
2023-04-28T01:43:21.515Z,6.85
2023-04-28T01:45:48.264Z,6.82
2023-04-28T01:48:15.154Z,6.80
2023-04-28T01:50:41.864Z,6.77
2023-04-28T01:53:08.680Z,6.76
2023-04-28T01:55:35.641Z,6.74
2023-04-28T01:58:02.373Z,6.72
2023-04-28T02:00:29.740Z,6.70
2023-04-28T02:02:56.668Z,6.69
2023-04-28T02:05:23.557Z,6.68
2023-04-28T02:07:50.943Z,6.69
2023-04-28T02:10:17.761Z,6.69
2023-04-28T02:12:44.449Z,6.68
2023-04-28T02:15:11.391Z,6.67
2023-04-28T02:17:38.206Z,6.66
2023-04-28T02:20:05.458Z,6.64
2023-04-28T02:22:32.465Z,6.61
2023-04-28T02:24:59.239Z,6.58
2023-04-28T02:27:26.301Z,6.55
2023-04-28T02:29:53.231Z,6.52
2023-04-28T02:32:21.811Z,6.46
2023-04-28T02:34:55.417Z,6.41
2023-04-28T02:37:22.965Z,6.35
2023-04-28T02:39:50.492Z,6.31
2023-04-28T02:42:17.211Z,6.26
2023-04-28T02:44:43.912Z,6.23
2023-04-28T02:47:10.708Z,6.21
2023-04-28T02:49:37.605Z,6.20
2023-04-28T02:52:04.770Z,6.20
2023-04-28T02:54:32.945Z,6.20
2023-04-28T02:56:59.838Z,6.22
2023-04-28T02:59:27.254Z,6.23
2023-04-28T03:01:53.986Z,6.25
2023-04-28T03:04:21.102Z,6.25
2023-04-28T03:06:48.203Z,6.24
2023-04-28T03:09:15.875Z,6.22
2023-04-28T03:11:42.603Z,6.19
2023-04-28T03:14:09.294Z,6.17
2023-04-28T03:16:36.129Z,6.16
2023-04-28T03:19:03.639Z,6.14
2023-04-28T03:21:30.419Z,6.11
2023-04-28T03:23:57.140Z,6.08
2023-04-28T03:26:24.593Z,6.07
2023-04-28T03:28:51.815Z,6.05
2023-04-28T03:31:18.570Z,6.03
2023-04-28T03:33:47.176Z,6.01
2023-04-28T03:36:14.445Z,5.97
2023-04-28T03:38:41.692Z,5.93
2023-04-28T03:41:08.514Z,5.90
2023-04-28T03:43:37.948Z,5.87
2023-04-28T03:46:15.306Z,5.84
2023-04-28T03:48:42.166Z,5.83
2023-04-28T03:51:08.985Z,5.82
2023-04-28T03:53:35.648Z,5.82
2023-04-28T03:56:02.406Z,5.80
2023-04-28T03:58:29.643Z,5.77
2023-04-28T04:00:56.488Z,5.76
2023-04-28T04:03:26.523Z,5.75
2023-04-28T04:05:55.835Z,5.73
2023-04-28T04:08:22.829Z,5.69
2023-04-28T04:10:49.737Z,5.66
2023-04-28T04:13:16.532Z,5.65
2023-04-28T04:15:43.692Z,5.67
2023-04-28T04:18:11.299Z,5.73
2023-04-28T04:20:58.113Z,5.87
2023-04-28T04:23:24.841Z,6.09
2023-04-28T04:25:51.706Z,6.35
2023-04-28T04:28:18.555Z,6.60
2023-04-28T04:30:45.201Z,6.84
2023-04-28T04:33:12.074Z,7.00
2023-04-28T04:35:38.865Z,7.07
2023-04-28T04:38:05.651Z,7.07
2023-04-28T04:40:32.359Z,7.01
2023-04-28T04:42:59.347Z,6.98
2023-04-28T04:45:27.830Z,6.95
2023-04-28T04:47:54.909Z,6.91
2023-04-28T04:50:21.746Z,6.91
2023-04-28T04:52:48.414Z,6.92
2023-04-28T04:55:15.267Z,6.90
2023-04-28T04:57:42.358Z,6.91
2023-04-28T05:00:29.491Z,6.94
2023-04-28T05:02:56.675Z,6.96
2023-04-28T05:05:23.642Z,6.99
2023-04-28T05:08:02.444Z,7.04
2023-04-28T05:10:29.419Z,7.05
2023-04-28T05:12:56.151Z,7.08
2023-04-28T05:15:22.976Z,7.09
2023-04-28T05:18:11.429Z,7.07
2023-04-28T05:20:38.321Z,7.06
2023-04-28T05:23:05.976Z,7.07
2023-04-28T05:25:32.829Z,7.08
2023-04-28T05:28:04.863Z,7.10
2023-04-28T05:30:31.968Z,7.11
2023-04-28T05:32:58.983Z,7.14
2023-04-28T05:35:26.298Z,7.18
2023-04-28T05:37:53.435Z,7.18
2023-04-28T05:40:20.795Z,7.20
2023-04-28T05:42:47.639Z,7.26
2023-04-28T05:45:15.207Z,7.33
2023-04-28T05:47:42.175Z,7.42
2023-04-28T05:50:09.969Z,7.51
2023-04-28T05:52:36.694Z,7.61
2023-04-28T05:55:03.803Z,7.70
2023-04-28T05:57:33.975Z,7.79
2023-04-28T06:00:09.290Z,7.90
2023-04-28T06:02:39.349Z,8.02
2023-04-28T06:05:07.548Z,8.14
2023-04-28T06:07:34.473Z,8.24
2023-04-28T06:10:01.201Z,8.30
2023-04-28T06:12:27.902Z,8.37
2023-04-28T06:14:55.538Z,8.45
2023-04-28T06:17:22.473Z,8.55
2023-04-28T06:19:51.307Z,8.63
2023-04-28T06:22:18.040Z,8.70
2023-04-28T06:24:47.925Z,8.77
2023-04-28T06:27:18.473Z,8.84
2023-04-28T06:29:45.338Z,8.90
2023-04-28T06:32:12.199Z,8.93
2023-04-28T06:34:39.055Z,8.95
2023-04-28T06:37:06.573Z,9.00
2023-04-28T06:39:33.615Z,9.03
2023-04-28T06:42:02.404Z,9.07
2023-04-28T06:44:29.518Z,9.12
2023-04-28T06:46:56.574Z,9.17
2023-04-28T06:49:23.333Z,9.23
2023-04-28T06:51:50.203Z,9.30
2023-04-28T06:54:17.137Z,9.37
2023-04-28T06:56:44.231Z,9.45
2023-04-28T06:59:10.994Z,9.54
2023-04-28T07:01:37.742Z,9.62
2023-04-28T07:04:04.847Z,9.66
2023-04-28T07:06:32.495Z,9.71
2023-04-28T07:08:59.303Z,9.71
2023-04-28T07:11:26.311Z,9.72
2023-04-28T07:13:52.947Z,9.73
2023-04-28T07:16:19.751Z,9.79
2023-04-28T07:18:46.682Z,9.87
2023-04-28T07:21:13.312Z,9.97
2023-04-28T07:23:41.019Z,10.07
2023-04-28T07:26:08.273Z,10.14
2023-04-28T07:28:35.298Z,10.18
2023-04-28T07:31:02.456Z,10.20
2023-04-28T07:33:29.174Z,10.24
2023-04-28T07:35:55.993Z,10.31
2023-04-28T07:38:22.711Z,10.36
2023-04-28T07:40:49.441Z,10.42
2023-04-28T07:43:16.291Z,10.49
2023-04-28T07:45:45.680Z,10.55
2023-04-28T07:48:12.783Z,10.59
2023-04-28T07:50:39.583Z,10.61
2023-04-28T07:53:06.328Z,10.60
2023-04-28T07:55:33.184Z,10.60
2023-04-28T07:57:59.916Z,10.64
2023-04-28T08:00:26.900Z,10.70
2023-04-28T08:02:53.739Z,10.75
2023-04-28T08:05:21.008Z,10.77
2023-04-28T08:07:47.918Z,10.79
2023-04-28T08:10:14.597Z,10.82
2023-04-28T08:12:41.422Z,10.86
2023-04-28T08:15:09.606Z,10.89
2023-04-28T08:17:36.586Z,10.92
2023-04-28T08:20:03.673Z,10.98
2023-04-28T08:22:30.659Z,11.03
2023-04-28T08:24:57.336Z,11.10
2023-04-28T08:27:25.785Z,11.19
2023-04-28T08:29:52.839Z,11.25
2023-04-28T08:32:19.525Z,11.29
2023-04-28T08:34:46.183Z,11.33
2023-04-28T08:37:13.541Z,11.36
2023-04-28T08:39:40.297Z,11.40
2023-04-28T08:42:07.036Z,11.44
2023-04-28T08:44:41.046Z,11.42
2023-04-28T08:47:13.160Z,11.37
2023-04-28T08:52:21.899Z,11.36
2023-04-28T08:54:48.564Z,11.32
2023-04-28T08:57:15.280Z,11.32
2023-04-28T08:59:42.067Z,11.33
2023-04-28T09:02:09.370Z,11.36
2023-04-28T09:04:36.806Z,11.41
2023-04-28T09:07:03.762Z,11.46
2023-04-28T09:09:34.197Z,11.52
2023-04-28T09:12:04.063Z,11.56
2023-04-28T09:14:33.086Z,11.61
2023-04-28T09:16:59.790Z,11.68
2023-04-28T09:19:36.722Z,11.73
2023-04-28T09:22:10.950Z,11.75
2023-04-28T09:24:50.450Z,11.75
2023-04-28T09:27:18.726Z,11.74
2023-04-28T09:29:52.809Z,11.73
2023-04-28T09:32:23.345Z,11.70
2023-04-28T09:34:51.461Z,11.68
2023-04-28T09:37:20.081Z,11.66
2023-04-28T09:39:47.810Z,11.61
2023-04-28T09:42:39.215Z,11.63
2023-04-28T09:45:13.680Z,11.72
2023-04-28T09:47:41.837Z,11.82
2023-04-28T09:50:11.893Z,11.89
2023-04-28T09:52:38.585Z,11.96
2023-04-28T09:55:07.266Z,11.98
2023-04-28T09:57:34.810Z,12.00
2023-04-28T10:00:02.263Z,12.04
2023-04-28T10:02:43.208Z,12.11
2023-04-28T10:05:11.719Z,12.19
2023-04-28T10:07:39.218Z,12.23
2023-04-28T10:10:07.652Z,12.28
2023-04-28T10:12:35.013Z,12.30
2023-04-28T10:15:02.005Z,12.27
2023-04-28T10:17:29.689Z,12.26
2023-04-28T10:19:57.217Z,12.28
2023-04-28T10:22:43.986Z,12.29
2023-04-28T10:25:32.755Z,12.27
2023-04-28T10:27:59.779Z,12.27
2023-04-28T10:30:29.571Z,12.27
2023-04-28T10:33:06.475Z,12.24
2023-04-28T10:35:36.319Z,12.18
2023-04-28T10:38:13.730Z,12.11
2023-04-28T10:40:44.785Z,12.07
2023-04-28T10:43:39.588Z,12.04
2023-04-28T10:46:08.106Z,12.05
2023-04-28T10:48:35.239Z,12.08
2023-04-28T10:51:04.931Z,12.12
2023-04-28T10:53:44.781Z,12.10
2023-04-28T10:56:16.957Z,12.13
2023-04-28T10:58:46.228Z,12.25
2023-04-28T11:01:22.661Z,12.37
2023-04-28T11:04:07.545Z,12.49
2023-04-28T11:06:36.366Z,12.60
2023-04-28T11:09:12.271Z,12.64
2023-04-28T11:11:40.685Z,12.70
2023-04-28T11:14:20.244Z,12.74
2023-04-28T11:16:52.181Z,12.72
2023-04-28T11:19:24.517Z,12.65
2023-04-28T11:21:51.938Z,12.62
2023-04-28T11:24:19.934Z,12.61
2023-04-28T11:26:46.954Z,12.56
2023-04-28T11:29:15.096Z,12.49
2023-04-28T11:31:49.264Z,12.51
2023-04-28T11:34:19.592Z,12.59
2023-04-28T11:36:46.253Z,12.66
2023-04-28T11:39:13.382Z,12.75
2023-04-28T11:41:43.931Z,12.84
2023-04-28T11:44:18.269Z,12.85
2023-04-28T11:46:55.793Z,12.74
2023-04-28T11:49:26.011Z,12.64
2023-04-28T11:51:52.926Z,12.58
2023-04-28T11:54:27.216Z,12.60
2023-04-28T11:56:55.816Z,12.61
2023-04-28T11:59:29.587Z,12.56
2023-04-28T12:02:00.784Z,12.55
2023-04-28T12:04:38.604Z,12.45
2023-04-28T12:07:12.617Z,12.31
2023-04-28T12:09:43.793Z,12.25
2023-04-28T12:12:12.374Z,12.26
2023-04-28T12:14:59.684Z,12.33
2023-04-28T12:17:31.498Z,12.40
2023-04-28T12:19:59.251Z,12.50
2023-04-28T12:22:26.085Z,12.56
2023-04-28T12:25:12.620Z,12.61
2023-04-28T12:27:40.670Z,12.73
2023-04-28T12:30:20.838Z,12.75
2023-04-28T12:32:48.395Z,12.68
2023-04-28T12:35:16.135Z,12.60
2023-04-28T12:37:45.777Z,12.55
2023-04-28T12:40:14.532Z,12.50
2023-04-28T12:42:41.217Z,12.43
2023-04-28T12:45:09.336Z,12.38
2023-04-28T12:47:37.849Z,12.35
2023-04-28T12:50:05.801Z,12.32
2023-04-28T12:52:36.062Z,12.27
2023-04-28T12:55:03.417Z,12.22
2023-04-28T12:57:30.194Z,12.22
2023-04-28T12:59:57.251Z,12.22
2023-04-28T13:02:24.401Z,12.23
2023-04-28T13:04:52.198Z,12.23
2023-04-28T13:07:19.245Z,12.26
2023-04-28T13:09:47.592Z,12.32
2023-04-28T13:12:14.933Z,12.43
2023-04-28T13:14:42.009Z,12.55
2023-04-28T13:17:10.187Z,12.65
2023-04-28T13:19:36.967Z,12.72
2023-04-28T13:22:05.442Z,12.71
2023-04-28T13:24:33.577Z,12.69
2023-04-28T13:27:00.491Z,12.70
2023-04-28T13:29:27.161Z,12.72
2023-04-28T13:31:54.299Z,12.78
2023-04-28T13:34:21.123Z,12.85
2023-04-28T13:36:50.837Z,12.88
2023-04-28T13:39:20.247Z,12.85
2023-04-28T13:41:47.123Z,12.77
2023-04-28T13:44:13.962Z,12.68
2023-04-28T13:46:41.000Z,12.56
2023-04-28T13:49:09.527Z,12.40
2023-04-28T13:51:36.409Z,12.27
2023-04-28T13:54:09.017Z,12.18
2023-04-28T13:56:36.483Z,12.10
2023-04-28T13:59:03.552Z,12.04
2023-04-28T14:01:30.360Z,11.97
2023-04-28T14:03:57.377Z,11.92
2023-04-28T14:06:24.288Z,11.89
2023-04-28T14:08:50.964Z,11.90
2023-04-28T14:11:17.651Z,11.92
2023-04-28T14:13:44.487Z,11.94
2023-04-28T14:16:11.935Z,11.97
2023-04-28T14:18:38.700Z,12.02
2023-04-28T14:21:08.422Z,12.08
2023-04-28T14:23:35.775Z,12.12
2023-04-28T14:26:02.644Z,12.12
2023-04-28T14:28:29.562Z,12.11
2023-04-28T14:30:56.576Z,12.08
2023-04-28T14:33:23.771Z,12.05
2023-04-28T14:35:50.557Z,12.04
2023-04-28T14:38:17.226Z,12.04
2023-04-28T14:40:43.969Z,12.07
2023-04-28T14:43:10.689Z,12.09
2023-04-28T14:45:38.250Z,12.13
2023-04-28T14:48:07.053Z,12.17
2023-04-28T14:50:33.964Z,12.19
2023-04-28T14:53:05.681Z,12.20
2023-04-28T14:55:33.189Z,12.22
2023-04-28T14:57:59.947Z,12.21
2023-04-28T15:00:26.680Z,12.19
2023-04-28T15:02:53.706Z,12.19
2023-04-28T15:05:20.622Z,12.17
2023-04-28T15:07:47.331Z,12.15
2023-04-28T15:10:14.360Z,12.14
2023-04-28T15:12:42.546Z,12.13
2023-04-28T15:15:10.312Z,12.10
2023-04-28T15:17:37.073Z,12.06
2023-04-28T15:20:05.246Z,12.03
2023-04-28T15:22:31.932Z,12.00
2023-04-28T15:24:58.634Z,11.97
2023-04-28T15:27:25.482Z,11.94
2023-04-28T15:29:52.237Z,11.91
2023-04-28T15:32:19.139Z,11.89
2023-04-28T15:34:46.089Z,11.89
2023-04-28T15:37:39.046Z,11.89
2023-04-28T15:40:06.646Z,11.88
2023-04-28T15:42:34.091Z,11.85
2023-04-28T15:45:02.445Z,11.81
2023-04-28T15:47:29.408Z,11.78
2023-04-28T15:49:56.136Z,11.75
2023-04-28T15:52:23.047Z,11.72
2023-04-28T15:54:50.157Z,11.68
2023-04-28T15:57:17.006Z,11.65
2023-04-28T15:59:43.677Z,11.62
2023-04-28T16:02:10.456Z,11.56
2023-04-28T16:04:37.321Z,11.53
2023-04-28T16:07:04.421Z,11.50
2023-04-28T16:09:31.461Z,11.46
2023-04-28T16:12:00.058Z,11.41
2023-04-28T16:14:27.017Z,11.36
2023-04-28T16:16:54.096Z,11.30
2023-04-28T16:19:21.851Z,11.23
2023-04-28T16:21:48.556Z,11.17
2023-04-28T16:24:15.322Z,11.09
2023-04-28T16:26:42.203Z,11.01
2023-04-28T16:29:08.903Z,10.95
2023-04-28T16:31:36.253Z,10.91
2023-04-28T16:34:03.896Z,10.84
2023-04-28T16:36:33.036Z,10.77
2023-04-28T16:38:59.822Z,10.69
2023-04-28T16:41:26.781Z,10.62
2023-04-28T16:43:53.706Z,10.55
2023-04-28T16:46:20.676Z,10.49
2023-04-28T16:48:47.332Z,10.44
2023-04-28T16:51:14.268Z,10.39
2023-04-28T16:53:42.213Z,10.34
2023-04-28T16:56:10.603Z,10.30
2023-04-28T16:58:37.912Z,10.24
2023-04-28T17:01:04.670Z,10.19
2023-04-28T17:03:31.926Z,10.14
2023-04-28T17:05:59.723Z,10.09
2023-04-28T17:08:26.904Z,10.05
2023-04-28T17:10:53.592Z,10.00
2023-04-28T17:13:20.328Z,9.95
2023-04-28T17:15:54.168Z,9.90
2023-04-28T17:18:21.162Z,9.85
2023-04-28T17:20:48.281Z,9.81
2023-04-28T17:23:16.075Z,9.74
2023-04-28T17:25:43.086Z,9.68
2023-04-28T17:28:10.183Z,9.62
2023-04-28T17:30:37.712Z,9.57
2023-04-28T17:33:04.721Z,9.52
2023-04-28T17:35:31.652Z,9.47
2023-04-28T17:37:58.296Z,9.43
2023-04-28T17:40:25.450Z,9.39
2023-04-28T17:42:53.108Z,9.34
2023-04-28T17:45:19.799Z,9.30
2023-04-28T17:47:46.864Z,9.25
2023-04-28T17:50:13.900Z,9.21
2023-04-28T17:52:43.369Z,9.16
2023-04-28T17:55:10.951Z,9.12
2023-04-28T17:57:38.001Z,9.07
2023-04-28T18:00:06.447Z,9.02
2023-04-28T18:02:38.725Z,8.97
2023-04-28T18:05:06.316Z,8.92
2023-04-28T18:07:33.109Z,8.86
2023-04-28T18:09:59.943Z,8.81
2023-04-28T18:12:26.643Z,8.76
2023-04-28T18:14:54.459Z,8.71
2023-04-28T18:17:23.124Z,8.68
2023-04-28T18:19:52.367Z,8.65
2023-04-28T18:22:19.061Z,8.60
2023-04-28T18:24:46.144Z,8.54
2023-04-28T18:27:12.831Z,8.50
2023-04-28T18:29:39.617Z,8.45
2023-04-28T18:32:06.817Z,8.41
2023-04-28T18:34:33.606Z,8.35
2023-04-28T18:37:00.514Z,8.29
2023-04-28T18:39:27.476Z,8.24
2023-04-28T18:41:54.127Z,8.20
2023-04-28T18:44:20.840Z,8.17
2023-04-28T18:46:47.592Z,8.15
2023-04-28T18:49:14.726Z,8.12
2023-04-28T18:51:41.519Z,8.08
2023-04-28T18:54:08.607Z,8.04
2023-04-28T18:56:36.256Z,8.00
2023-04-28T18:59:04.405Z,7.95
2023-04-28T19:01:31.504Z,7.90
2023-04-28T19:03:58.633Z,7.86
2023-04-28T19:06:25.746Z,7.83
2023-04-28T19:08:52.428Z,7.79
2023-04-28T19:11:19.108Z,7.75
2023-04-28T19:13:45.814Z,7.71
2023-04-28T19:16:12.858Z,7.67
2023-04-28T19:18:39.877Z,7.62
2023-04-28T19:21:06.631Z,7.57
2023-04-28T19:23:33.819Z,7.51
2023-04-28T19:26:00.686Z,7.45
2023-04-28T19:28:28.806Z,7.40
2023-04-28T19:30:56.704Z,7.35
2023-04-28T19:33:25.536Z,7.31
2023-04-28T19:35:56.837Z,7.26
2023-04-28T19:38:23.896Z,7.21
2023-04-28T19:40:51.143Z,7.16
2023-04-28T19:43:18.128Z,7.10
2023-04-28T19:45:46.646Z,7.05
2023-04-28T19:48:14.544Z,6.99
2023-04-28T19:50:42.279Z,6.93
2023-04-28T19:53:09.448Z,6.89
2023-04-28T19:55:36.930Z,6.82
2023-04-28T19:58:03.997Z,6.77
2023-04-28T20:00:32.446Z,6.70
2023-04-28T20:03:00.219Z,6.62
2023-04-28T20:05:27.318Z,6.56
2023-04-28T20:07:56.233Z,6.49
2023-04-28T20:10:23.982Z,6.42
2023-04-28T20:12:50.965Z,6.37
2023-04-28T20:15:18.503Z,6.30
2023-04-28T20:17:45.896Z,6.23
2023-04-28T20:20:12.940Z,6.17
2023-04-28T20:22:41.128Z,6.08
2023-04-28T20:25:10.435Z,6.01
2023-04-28T20:27:37.327Z,5.94
2023-04-28T20:30:04.707Z,5.86
2023-04-28T20:32:31.657Z,5.81
2023-04-28T20:34:58.473Z,5.76
2023-04-28T20:37:26.480Z,5.71
2023-04-28T20:39:53.458Z,5.65
2023-04-28T20:42:20.268Z,5.58
2023-04-28T20:44:47.180Z,5.50
2023-04-28T20:47:14.249Z,5.42
2023-04-28T20:49:42.321Z,5.32
2023-04-28T20:52:09.208Z,5.28
2023-04-28T20:54:36.301Z,5.27
2023-04-28T20:57:04.509Z,5.26
2023-04-28T20:59:32.451Z,5.23
2023-04-28T21:01:59.965Z,5.20
2023-04-28T21:04:27.012Z,5.15
2023-04-28T21:09:37.124Z,5.09
2023-04-28T21:12:03.950Z,5.03
2023-04-28T21:14:33.643Z,5.01
2023-04-28T21:17:01.742Z,4.98
2023-04-28T21:19:31.853Z,4.92
2023-04-28T21:21:58.479Z,4.89
2023-04-28T21:24:25.052Z,4.85
2023-04-28T21:26:51.560Z,4.83
2023-04-28T21:29:18.110Z,4.80
2023-04-28T21:31:45.207Z,4.76
2023-04-28T21:34:11.670Z,4.71
2023-04-28T21:36:38.136Z,4.66
2023-04-28T21:39:04.801Z,4.63
2023-04-28T21:41:32.060Z,4.60
2023-04-28T21:43:59.328Z,4.60
2023-04-28T21:46:25.923Z,4.60
2023-04-28T21:48:52.544Z,4.60
2023-04-28T21:51:19.151Z,4.59
2023-04-28T21:53:45.654Z,4.56
2023-04-28T21:56:12.163Z,4.54
2023-04-28T21:58:38.770Z,4.53
2023-04-28T22:01:05.875Z,4.51
2023-04-28T22:03:34.622Z,4.48
2023-04-28T22:06:01.328Z,4.46
2023-04-28T22:08:27.822Z,4.41
2023-04-28T22:10:54.393Z,4.36
2023-04-28T22:13:22.750Z,4.34
2023-04-28T22:15:49.290Z,4.33
2023-04-28T22:18:16.741Z,4.31
2023-04-28T22:20:43.771Z,4.28
2023-04-28T22:23:10.339Z,4.25
2023-04-28T22:25:37.360Z,4.23
2023-04-28T22:28:04.190Z,4.15
2023-04-28T22:30:31.174Z,4.09
2023-04-28T22:32:57.744Z,4.03
2023-04-28T22:35:24.430Z,3.98
2023-04-28T22:37:50.968Z,3.95
2023-04-28T22:40:17.711Z,3.88
2023-04-28T22:42:44.728Z,3.79
2023-04-28T22:45:11.782Z,3.69
2023-04-28T22:47:40.099Z,3.64
2023-04-28T22:50:10.173Z,3.60
2023-04-28T22:52:36.779Z,3.55
2023-04-28T22:55:04.149Z,3.52
2023-04-28T22:57:30.919Z,3.51
2023-04-28T22:59:57.373Z,3.48
2023-04-28T23:02:24.641Z,3.47
2023-04-28T23:04:51.396Z,3.48
2023-04-28T23:07:18.082Z,3.46
2023-04-28T23:09:44.603Z,3.43
2023-04-28T23:12:11.157Z,3.41
2023-04-28T23:14:37.820Z,3.38
2023-04-28T23:17:04.475Z,3.33
2023-04-28T23:19:31.103Z,3.31
2023-04-28T23:21:57.718Z,3.28
2023-04-28T23:24:26.544Z,3.23
2023-04-28T23:26:53.294Z,3.17
2023-04-28T23:29:19.794Z,3.10
2023-04-28T23:31:51.587Z,3.04
2023-04-28T23:34:18.520Z,3.00
2023-04-28T23:36:45.174Z,2.97
2023-04-28T23:39:11.917Z,2.94
2023-04-28T23:41:38.523Z,2.91
2023-04-28T23:44:05.090Z,2.89
2023-04-28T23:46:32.572Z,2.87
2023-04-28T23:48:59.219Z,2.85
2023-04-28T23:51:27.169Z,2.85
2023-04-28T23:53:53.797Z,2.88
2023-04-28T23:56:20.277Z,2.89
2023-04-28T23:58:46.748Z,2.90
